Time;durP1;ratioP1;P1;durP2;ratioP2;P2;SDS_P1;SDS_P2;PMS_P1;PMS_P2;Temp;Humidity;BMP_temperature;BMP_pressure;BME280_temperature;BME280_humidity;BME280_pressure;Samples;Min_cycle;Max_cycle;Signal;HPM_P1;HPM_P2
2021/09/20 00:01:32;;;;;;;;;1.75;1.75;;;;;;;;4990467;28;45572;-72
2021/09/20 00:03:57;;;;;;;;;0.00;0.00;;;;;;;;4992243;28;47283;-71
2021/09/20 00:06:22;;;;;;;;;1.25;1.25;;;;;;;;4991702;28;45474;-70
2021/09/20 00:08:47;;;;;;;;;1.00;1.00;;;;;;;;4992030;28;45439;-70
2021/09/20 00:11:13;;;;;;;;;1.00;1.00;;;;;;;;4991794;28;45329;-69
2021/09/20 00:13:38;;;;;;;;;0.75;0.75;;;;;;;;4991381;28;46244;-70
2021/09/20 00:16:03;;;;;;;;;0.00;0.00;;;;;;;;4991796;28;45509;-70
2021/09/20 00:18:29;;;;;;;;;1.75;1.75;;;;;;;;4993956;28;45745;-72
2021/09/20 00:20:54;;;;;;;;;1.00;0.75;;;;;;;;4991548;28;45395;-71
2021/09/20 00:23:19;;;;;;;;;1.25;1.25;;;;;;;;4991544;28;46845;-71
2021/09/20 00:25:44;;;;;;;;;0.75;0.75;;;;;;;;4991581;28;45481;-71
2021/09/20 00:28:10;;;;;;;;;0.00;0.00;;;;;;;;4991574;28;45458;-72
2021/09/20 00:30:38;;;;;;;;;1.00;1.00;;;;;;;;4993532;28;45502;-72
2021/09/20 00:33:04;;;;;;;;;0.00;0.00;;;;;;;;4991432;28;47298;-71
2021/09/20 00:35:29;;;;;;;;;1.00;1.00;;;;;;;;4991422;28;45296;-72
2021/09/20 00:37:54;;;;;;;;;1.75;1.75;;;;;;;;4991680;28;45414;-72
2021/09/20 00:40:19;;;;;;;;;0.00;0.00;;;;;;;;4990296;28;45362;-72
2021/09/20 00:42:44;;;;;;;;;0.00;0.00;;;;;;;;4993352;28;46293;-72
2021/09/20 00:45:10;;;;;;;;;0.75;0.75;;;;;;;;4990086;28;45423;-72
2021/09/20 00:47:35;;;;;;;;;1.75;0.50;;;;;;;;4973808;28;45379;-72
2021/09/20 00:50:00;;;;;;;;;0.75;0.75;;;;;;;;4991240;28;45414;-72
2021/09/20 00:52:25;;;;;;;;;1.75;1.75;;;;;;;;4991293;28;45449;-71
2021/09/20 00:54:51;;;;;;;;;1.00;1.00;;;;;;;;4992652;28;45414;-71
2021/09/20 00:57:17;;;;;;;;;1.00;1.00;;;;;;;;4991892;28;45542;-72
2021/09/20 00:59:42;;;;;;;;;1.75;1.00;;;;;;;;4991312;28;45507;-71
2021/09/20 01:02:07;;;;;;;;;0.25;0.25;;;;;;;;4990933;28;46069;-71
2021/09/20 01:04:33;;;;;;;;;0.00;0.00;;;;;;;;4991333;28;45277;-71
2021/09/20 01:06:58;;;;;;;;;3.00;1.00;;;;;;;;4992044;28;45359;-71
2021/09/20 01:09:25;;;;;;;;;2.25;1.00;;;;;;;;4992821;28;45291;-71
2021/09/20 01:11:51;;;;;;;;;0.75;0.75;;;;;;;;4990696;28;46280;-72
2021/09/20 01:14:16;;;;;;;;;0.75;0.75;;;;;;;;4990760;28;45274;-72
2021/09/20 01:16:41;;;;;;;;;0.00;0.00;;;;;;;;4991405;28;45506;-72
2021/09/20 01:19:06;;;;;;;;;0.50;0.50;;;;;;;;4991391;28;45208;-72
2021/09/20 01:21:31;;;;;;;;;1.50;1.50;;;;;;;;4991541;28;45988;-71
2021/09/20 01:23:57;;;;;;;;;1.00;1.00;;;;;;;;4989535;28;45178;-72
2021/09/20 01:26:22;;;;;;;;;1.50;0.50;;;;;;;;4990682;28;45821;-72
2021/09/20 01:28:47;;;;;;;;;1.25;0.75;;;;;;;;4973383;28;45588;-71
2021/09/20 01:31:12;;;;;;;;;0.75;0.00;;;;;;;;4990956;28;45327;-72
2021/09/20 01:33:38;;;;;;;;;2.00;1.00;;;;;;;;4992713;28;45220;-72
2021/09/20 01:36:03;;;;;;;;;1.75;0.50;;;;;;;;4990969;28;45600;-72
2021/09/20 01:38:28;;;;;;;;;2.00;1.00;;;;;;;;4990978;28;46091;-72
2021/09/20 01:40:53;;;;;;;;;2.25;1.00;;;;;;;;4990208;28;47332;-72
2021/09/20 01:43:19;;;;;;;;;0.25;0.25;;;;;;;;4990839;28;45341;-72
2021/09/20 01:45:46;;;;;;;;;0.50;0.50;;;;;;;;4992961;28;46595;-72
2021/09/20 01:48:11;;;;;;;;;1.75;1.00;;;;;;;;4988878;28;45442;-71
2021/09/20 01:50:36;;;;;;;;;1.00;1.00;;;;;;;;4989805;28;45602;-71
2021/09/20 01:53:02;;;;;;;;;1.00;1.00;;;;;;;;4990350;28;45392;-72
2021/09/20 01:55:27;;;;;;;;;4.00;1.00;;;;;;;;4990274;28;45511;-72
2021/09/20 01:57:52;;;;;;;;;2.25;0.50;;;;;;;;4991676;28;45331;-72
2021/09/20 02:00:18;;;;;;;;;0.75;0.50;;;;;;;;4989688;28;45405;-72
2021/09/20 02:02:43;;;;;;;;;0.50;0.50;;;;;;;;4989068;28;45610;-72
2021/09/20 02:05:09;;;;;;;;;2.00;1.50;;;;;;;;4990416;28;45476;-72
2021/09/20 02:07:35;;;;;;;;;1.25;1.25;;;;;;;;4990582;28;45493;-72
2021/09/20 02:10:01;;;;;;;;;0.50;0.50;;;;;;;;4990258;28;45895;-72
2021/09/20 02:12:26;;;;;;;;;1.00;1.00;;;;;;;;4992163;28;45327;-73
2021/09/20 02:14:51;;;;;;;;;2.25;1.25;;;;;;;;4990197;28;45417;-71
2021/09/20 02:17:16;;;;;;;;;3.00;1.00;;;;;;;;4990266;28;45399;-73
2021/09/20 02:19:42;;;;;;;;;3.25;1.50;;;;;;;;4989896;28;47065;-73
2021/09/20 02:22:07;;;;;;;;;1.75;1.75;;;;;;;;4989867;28;45469;-73
2021/09/20 02:24:33;;;;;;;;;2.00;1.00;;;;;;;;4992317;28;45307;-70
2021/09/20 02:26:59;;;;;;;;;3.00;2.00;;;;;;;;4989897;28;45402;-71
2021/09/20 02:29:24;;;;;;;;;3.50;2.50;;;;;;;;4989643;28;45512;-72
2021/09/20 02:31:49;;;;;;;;;2.50;1.00;;;;;;;;4989745;28;45559;-69
2021/09/20 02:34:14;;;;;;;;;1.00;1.00;;;;;;;;4990369;28;45309;-70
2021/09/20 02:36:40;;;;;;;;;1.00;1.00;;;;;;;;4991863;28;45539;-71
2021/09/20 02:39:05;;;;;;;;;1.75;1.00;;;;;;;;4988122;28;46200;-69
2021/09/20 02:41:30;;;;;;;;;2.50;1.00;;;;;;;;4988212;28;45340;-71
2021/09/20 02:43:55;;;;;;;;;1.50;1.50;;;;;;;;4990002;28;45747;-69
2021/09/20 02:46:21;;;;;;;;;1.50;1.50;;;;;;;;4989849;28;45374;-69
2021/09/20 02:48:46;;;;;;;;;1.50;1.50;;;;;;;;4991429;28;46008;-70
2021/09/20 02:51:11;;;;;;;;;3.00;2.00;;;;;;;;4989756;28;45441;-70
2021/09/20 02:53:37;;;;;;;;;1.25;1.25;;;;;;;;4989552;28;45519;-70
2021/09/20 02:56:04;;;;;;;;;1.00;1.00;;;;;;;;4989716;28;45330;-70
2021/09/20 02:58:29;;;;;;;;;2.50;2.50;;;;;;;;4989448;28;45384;-69
2021/09/20 03:00:54;;;;;;;;;1.25;1.00;;;;;;;;4990918;28;45484;-70
2021/09/20 03:03:19;;;;;;;;;2.00;2.00;;;;;;;;4994206;28;45463;-71
2021/09/20 03:05:44;;;;;;;;;1.50;1.00;;;;;;;;4992470;28;45377;-71
2021/09/20 03:08:10;;;;;;;;;0.00;0.00;;;;;;;;4992091;28;46163;-72
2021/09/20 03:10:35;;;;;;;;;3.75;3.00;;;;;;;;4992664;28;45350;-73
2021/09/20 03:13:01;;;;;;;;;1.50;1.50;;;;;;;;4992771;28;45196;-70
2021/09/20 03:15:26;;;;;;;;;1.50;1.50;;;;;;;;4994664;28;45239;-69
2021/09/20 03:17:51;;;;;;;;;3.25;3.25;;;;;;;;4990466;28;45285;-70
2021/09/20 03:20:17;;;;;;;;;2.00;2.00;;;;;;;;4990525;28;45576;-72
2021/09/20 03:22:42;;;;;;;;;2.75;2.75;;;;;;;;4992602;28;45703;-72
2021/09/20 03:25:08;;;;;;;;;5.25;3.00;;;;;;;;4992336;28;45568;-72
2021/09/20 03:27:33;;;;;;;;;3.50;1.25;;;;;;;;4994131;28;45394;-72
2021/09/20 03:29:58;;;;;;;;;3.50;3.00;;;;;;;;4992164;28;45333;-73
2021/09/20 03:32:24;;;;;;;;;0.00;0.00;;;;;;;;4992134;28;45365;-72
2021/09/20 03:34:49;;;;;;;;;6.75;3.00;;;;;;;;4991883;28;45435;-73
2021/09/20 03:37:14;;;;;;;;;3.50;3.50;;;;;;;;4992101;28;46238;-73
2021/09/20 03:39:39;;;;;;;;;2.75;2.75;;;;;;;;4994129;28;45351;-73
2021/09/20 03:42:04;;;;;;;;;3.75;2.75;;;;;;;;4992035;28;45521;-73
2021/09/20 03:44:30;;;;;;;;;4.00;2.50;;;;;;;;4991645;28;45241;-73
2021/09/20 03:46:55;;;;;;;;;3.00;3.00;;;;;;;;4991912;28;45551;-73
2021/09/20 03:49:20;;;;;;;;;5.00;3.25;;;;;;;;4991768;28;45752;-73
2021/09/20 03:51:45;;;;;;;;;4.25;3.75;;;;;;;;4993665;28;45565;-73
2021/09/20 03:54:10;;;;;;;;;6.75;1.00;;;;;;;;4992035;28;45596;-73
2021/09/20 03:56:36;;;;;;;;;4.00;3.00;;;;;;;;4990051;28;45375;-73
2021/09/20 03:59:01;;;;;;;;;3.00;3.00;;;;;;;;4990263;28;45755;-73
2021/09/20 04:01:26;;;;;;;;;5.75;3.00;;;;;;;;4992091;28;45415;-73
2021/09/20 04:03:51;;;;;;;;;8.50;5.50;;;;;;;;4992670;28;45465;-72
2021/09/20 04:06:16;;;;;;;;;4.75;4.75;;;;;;;;4992344;28;45474;-73
2021/09/20 04:08:41;;;;;;;;;2.25;2.25;;;;;;;;4991792;28;45445;-73
2021/09/20 04:11:07;;;;;;;;;6.00;6.00;;;;;;;;4991640;28;45502;-72
2021/09/20 04:13:32;;;;;;;;;5.00;5.00;;;;;;;;4990819;28;45695;-72
2021/09/20 04:15:57;;;;;;;;;4.00;4.00;;;;;;;;4991411;28;46130;-72
2021/09/20 04:18:23;;;;;;;;;2.50;2.50;;;;;;;;4992760;28;45471;-72
2021/09/20 04:20:49;;;;;;;;;6.75;3.25;;;;;;;;4991109;28;45390;-72
2021/09/20 04:23:14;;;;;;;;;4.50;4.00;;;;;;;;4990944;28;45300;-72
2021/09/20 04:25:40;;;;;;;;;6.75;6.75;;;;;;;;4990920;28;46110;-72
2021/09/20 04:28:05;;;;;;;;;5.50;2.75;;;;;;;;4991368;28;45576;-72
2021/09/20 04:30:30;;;;;;;;;5.00;3.75;;;;;;;;4993268;28;45560;-72
2021/09/20 04:32:55;;;;;;;;;4.75;4.75;;;;;;;;4990568;28;45363;-72
2021/09/20 04:35:21;;;;;;;;;4.25;4.25;;;;;;;;4989110;28;45251;-72
2021/09/20 04:37:46;;;;;;;;;4.00;4.00;;;;;;;;4989567;28;45442;-71
2021/09/20 04:40:11;;;;;;;;;4.50;4.00;;;;;;;;4973422;28;45340;-72
2021/09/20 04:42:37;;;;;;;;;7.25;6.75;;;;;;;;4992907;28;45579;-71
2021/09/20 04:45:02;;;;;;;;;4.00;3.00;;;;;;;;4990515;28;46014;-74
2021/09/20 04:47:27;;;;;;;;;4.50;3.50;;;;;;;;4990211;28;45270;-71
2021/09/20 04:49:53;;;;;;;;;16.25;14.50;;;;;;;;4990538;28;45429;-72
2021/09/20 04:52:18;;;;;;;;;6.25;5.75;;;;;;;;4990625;28;45257;-72
2021/09/20 04:54:43;;;;;;;;;6.50;4.25;;;;;;;;4993505;28;46035;-72
2021/09/20 04:57:08;;;;;;;;;2.50;2.25;;;;;;;;4991179;28;45370;-72
2021/09/20 04:59:33;;;;;;;;;3.50;3.00;;;;;;;;4990181;28;45237;-72
2021/09/20 05:01:59;;;;;;;;;6.00;4.00;;;;;;;;4990400;28;45227;-73
2021/09/20 05:04:24;;;;;;;;;6.00;4.00;;;;;;;;4991210;28;45481;-72
2021/09/20 05:06:49;;;;;;;;;5.75;3.75;;;;;;;;4991867;28;45427;-72
2021/09/20 05:09:14;;;;;;;;;4.50;4.50;;;;;;;;4991053;28;45335;-71
2021/09/20 05:11:39;;;;;;;;;5.00;5.00;;;;;;;;4990765;28;45351;-71
2021/09/20 05:14:05;;;;;;;;;3.25;3.25;;;;;;;;4988752;28;45321;-72
2021/09/20 05:16:30;;;;;;;;;8.50;4.00;;;;;;;;4988400;28;45423;-73
2021/09/20 05:18:55;;;;;;;;;4.50;4.50;;;;;;;;4991346;28;45738;-74
2021/09/20 05:21:20;;;;;;;;;6.50;5.00;;;;;;;;4989598;28;45452;-73
2021/09/20 05:23:46;;;;;;;;;5.00;5.00;;;;;;;;4988247;28;45968;-74
2021/09/20 05:26:12;;;;;;;;;3.00;3.00;;;;;;;;4989834;28;45470;-72
2021/09/20 05:28:37;;;;;;;;;4.00;3.50;;;;;;;;4989503;28;45278;-73
2021/09/20 05:31:03;;;;;;;;;3.50;3.00;;;;;;;;4988973;28;45438;-74
2021/09/20 05:33:33;;;;;;;;;3.50;3.50;;;;;;;;4973380;28;48331;-72
2021/09/20 05:35:58;;;;;;;;;4.00;4.00;;;;;;;;4989053;28;45362;-72
2021/09/20 05:38:23;;;;;;;;;5.25;4.25;;;;;;;;4989582;28;45810;-73
2021/09/20 05:40:48;;;;;;;;;7.00;4.75;;;;;;;;4989120;28;45248;-74
2021/09/20 05:43:14;;;;;;;;;3.00;3.00;;;;;;;;4989563;28;45402;-74
2021/09/20 05:45:39;;;;;;;;;5.75;3.00;;;;;;;;4990769;28;45614;-74
2021/09/20 05:48:04;;;;;;;;;4.00;4.00;;;;;;;;4988761;28;45641;-74
2021/09/20 05:50:30;;;;;;;;;4.50;3.25;;;;;;;;4988753;28;45304;-73
2021/09/20 05:52:55;;;;;;;;;12.00;8.00;;;;;;;;4987251;28;46724;-74
2021/09/20 05:55:20;;;;;;;;;7.00;6.25;;;;;;;;4987523;28;45521;-73
2021/09/20 05:57:46;;;;;;;;;4.00;3.00;;;;;;;;4973619;28;45488;-73
2021/09/20 06:00:12;;;;;;;;;5.75;5.75;;;;;;;;4988512;28;45449;-73
2021/09/20 06:02:38;;;;;;;;;7.50;3.75;;;;;;;;4989159;28;46194;-74
2021/09/20 06:05:03;;;;;;;;;7.00;5.50;;;;;;;;4988625;28;45533;-73
2021/09/20 06:07:28;;;;;;;;;7.50;7.25;;;;;;;;4988938;28;45450;-71
2021/09/20 06:09:53;;;;;;;;;5.25;4.00;;;;;;;;4990220;28;45390;-72
2021/09/20 06:12:20;;;;;;;;;7.75;5.75;;;;;;;;4989486;28;46007;-74
2021/09/20 06:14:45;;;;;;;;;5.50;5.00;;;;;;;;4986737;28;45391;-72
2021/09/20 06:17:10;;;;;;;;;8.00;8.00;;;;;;;;4988413;28;45339;-74
2021/09/20 06:19:35;;;;;;;;;9.75;7.00;;;;;;;;4988670;28;45254;-74
2021/09/20 06:22:01;;;;;;;;;12.25;10.25;;;;;;;;4988355;28;46250;-74
2021/09/20 06:24:26;;;;;;;;;13.50;12.25;;;;;;;;4990285;28;45305;-73
2021/09/20 06:26:51;;;;;;;;;10.75;8.50;;;;;;;;4970318;28;45417;-74
2021/09/20 06:29:16;;;;;;;;;15.50;12.75;;;;;;;;4987754;28;46513;-73
2021/09/20 06:31:42;;;;;;;;;15.25;15.00;;;;;;;;4986065;28;45431;-73
2021/09/20 06:34:07;;;;;;;;;20.50;14.50;;;;;;;;4988328;28;45527;-74
2021/09/20 06:36:32;;;;;;;;;21.75;16.25;;;;;;;;4991376;28;45566;-74
2021/09/20 06:38:58;;;;;;;;;19.25;11.00;;;;;;;;4990528;28;45416;-72
2021/09/20 06:41:23;;;;;;;;;23.00;19.75;;;;;;;;4990904;28;47073;-72
2021/09/20 06:43:49;;;;;;;;;14.50;14.50;;;;;;;;4991277;28;45294;-73
2021/09/20 06:46:14;;;;;;;;;13.50;12.25;;;;;;;;4991145;28;45383;-73
2021/09/20 06:48:40;;;;;;;;;20.00;18.00;;;;;;;;4993037;28;45229;-73
2021/09/20 06:51:05;;;;;;;;;15.25;14.00;;;;;;;;4990485;28;47031;-73
2021/09/20 06:53:31;;;;;;;;;15.25;15.25;;;;;;;;4990641;28;45384;-74
2021/09/20 06:55:56;;;;;;;;;14.25;14.00;;;;;;;;4991126;28;45400;-74
2021/09/20 06:58:21;;;;;;;;;16.25;14.00;;;;;;;;4991130;28;45310;-73
2021/09/20 07:00:46;;;;;;;;;15.00;14.75;;;;;;;;4993380;28;46191;-75
2021/09/20 07:03:12;;;;;;;;;20.00;18.75;;;;;;;;4991072;28;45379;-73
2021/09/20 07:05:38;;;;;;;;;17.25;17.25;;;;;;;;4990490;28;45406;-73
2021/09/20 07:08:03;;;;;;;;;11.50;9.50;;;;;;;;4990111;28;45486;-72
2021/09/20 07:10:29;;;;;;;;;17.75;13.00;;;;;;;;4989090;28;47075;-73
2021/09/20 07:12:54;;;;;;;;;13.00;9.75;;;;;;;;4991049;28;45330;-73
2021/09/20 07:15:19;;;;;;;;;11.25;11.25;;;;;;;;4990337;28;45446;-72
2021/09/20 07:17:44;;;;;;;;;15.25;14.00;;;;;;;;4991124;28;45440;-73
2021/09/20 07:20:10;;;;;;;;;11.00;11.00;;;;;;;;4990825;28;45396;-73
2021/09/20 07:22:36;;;;;;;;;14.00;12.00;;;;;;;;4991027;28;45517;-74
2021/09/20 07:25:01;;;;;;;;;20.00;15.50;;;;;;;;4990838;28;46136;-73
2021/09/20 07:27:26;;;;;;;;;15.00;12.25;;;;;;;;4990306;28;45170;-73
2021/09/20 07:29:51;;;;;;;;;11.25;11.25;;;;;;;;4990835;28;45508;-73
2021/09/20 07:32:17;;;;;;;;;14.25;13.00;;;;;;;;4990718;28;45518;-72
2021/09/20 07:34:42;;;;;;;;;18.00;14.75;;;;;;;;4990323;28;45666;-73
2021/09/20 07:37:08;;;;;;;;;21.50;14.50;;;;;;;;4973017;28;45372;-73
2021/09/20 07:39:33;;;;;;;;;13.25;12.75;;;;;;;;4992400;28;47176;-73
2021/09/20 07:41:58;;;;;;;;;23.00;18.25;;;;;;;;4990160;28;45540;-73
2021/09/20 07:44:24;;;;;;;;;10.50;10.50;;;;;;;;4989994;28;45382;-73
2021/09/20 07:46:49;;;;;;;;;19.25;16.75;;;;;;;;4989688;28;45320;-73
2021/09/20 07:49:15;;;;;;;;;17.75;13.25;;;;;;;;4989713;28;47259;-73
2021/09/20 07:51:41;;;;;;;;;14.00;12.25;;;;;;;;4992632;28;45600;-72
2021/09/20 07:54:06;;;;;;;;;15.50;14.00;;;;;;;;4989438;28;45502;-74
2021/09/20 07:56:32;;;;;;;;;12.00;10.25;;;;;;;;4990876;28;45539;-73
2021/09/20 07:58:58;;;;;;;;;15.75;13.50;;;;;;;;4988852;28;46092;-73
2021/09/20 08:01:24;;;;;;;;;19.00;19.00;;;;;;;;4989453;28;45394;-71
2021/09/20 08:03:49;;;;;;;;;25.25;19.50;;;;;;;;4991922;28;45454;-72
2021/09/20 08:06:17;;;;;;;;;13.00;12.25;;;;;;;;4989369;28;45390;-73
2021/09/20 08:08:42;;;;;;;;;19.50;19.00;;;;;;;;4990042;28;46303;-72
2021/09/20 08:11:07;;;;;;;;;17.50;16.00;;;;;;;;4989859;28;45507;-71
2021/09/20 08:13:33;;;;;;;;;12.25;10.00;;;;;;;;4990435;28;45517;-72
2021/09/20 08:15:58;;;;;;;;;15.75;11.50;;;;;;;;4991422;28;45506;-72
2021/09/20 08:18:24;;;;;;;;;16.50;13.75;;;;;;;;4989573;28;46181;-72
2021/09/20 08:20:49;;;;;;;;;13.00;11.50;;;;;;;;4989998;28;45411;-71
2021/09/20 08:23:14;;;;;;;;;10.00;10.00;;;;;;;;4990291;28;45413;-72
2021/09/20 08:25:40;;;;;;;;;16.75;11.50;;;;;;;;4989960;28;45304;-71
2021/09/20 08:28:06;;;;;;;;;12.50;12.25;;;;;;;;4989883;28;46196;-72
2021/09/20 08:30:32;;;;;;;;;14.50;13.25;;;;;;;;4991026;28;45482;-72
2021/09/20 08:32:57;;;;;;;;;14.25;12.25;;;;;;;;4988761;28;45349;-72
2021/09/20 08:35:22;;;;;;;;;12.50;11.25;;;;;;;;4990559;28;45494;-72
2021/09/20 08:37:48;;;;;;;;;17.00;15.50;;;;;;;;4989877;28;47110;-71
2021/09/20 08:40:14;;;;;;;;;11.25;11.25;;;;;;;;4989891;28;45511;-73
2021/09/20 08:42:40;;;;;;;;;11.50;11.50;;;;;;;;4992324;28;45268;-73
2021/09/20 08:45:07;;;;;;;;;19.25;14.00;;;;;;;;4990026;28;45435;-72
2021/09/20 08:47:32;;;;;;;;;19.50;17.50;;;;;;;;4989581;28;46254;-71
2021/09/20 08:49:58;;;;;;;;;15.75;15.25;;;;;;;;4990110;28;45551;-73
2021/09/20 08:52:23;;;;;;;;;15.00;13.50;;;;;;;;4989883;28;45363;-71
2021/09/20 08:54:51;;;;;;;;;12.00;11.00;;;;;;;;4991576;28;45484;-72
2021/09/20 08:57:16;;;;;;;;;15.00;11.50;;;;;;;;4985226;28;47295;-73
2021/09/20 08:59:41;;;;;;;;;14.50;13.50;;;;;;;;4989899;28;45408;-72
2021/09/20 09:02:07;;;;;;;;;14.25;13.00;;;;;;;;4989733;28;45321;-72
2021/09/20 09:04:34;;;;;;;;;16.25;14.75;;;;;;;;4989748;28;45355;-72
2021/09/20 09:07:03;;;;;;;;;12.75;10.75;;;;;;;;4990222;28;45944;-72
2021/09/20 09:09:36;;;;;;;;;12.25;12.25;;;;;;;;4989548;28;45315;-72
2021/09/20 09:12:36;;;;;;;;;10.25;10.25;;;;;;;;4988504;28;45848;-73
2021/09/20 09:15:02;;;;;;;;;14.00;12.00;;;;;;;;4930112;28;45505;-73
2021/09/20 09:17:30;;;;;;;;;12.00;10.25;;;;;;;;4924973;28;47582;-72
2021/09/20 09:19:55;;;;;;;;;12.00;12.00;;;;;;;;4919405;28;45485;-73
2021/09/20 09:22:21;;;;;;;;;20.25;15.00;;;;;;;;4915903;28;45498;-72
2021/09/20 09:25:00;;;;;;;;;10.75;9.50;;;;;;;;4915228;28;45307;-73
2021/09/20 09:27:26;;;;;;;;;11.00;10.00;;;;;;;;4930545;28;45486;-72
2021/09/20 09:30:00;;;;;;;;;8.25;7.25;;;;;;;;4921669;28;45522;-72
2021/09/20 09:32:25;;;;;;;;;12.75;11.25;;;;;;;;4919177;28;45630;-72
2021/09/20 09:34:58;;;;;;;;;8.00;7.75;;;;;;;;4919055;28;45317;-71
2021/09/20 09:37:24;;;;;;;;;19.25;15.50;;;;;;;;4915868;28;46080;-72
2021/09/20 09:39:49;;;;;;;;;17.25;15.50;;;;;;;;4915085;28;45420;-73
2021/09/20 09:42:22;;;;;;;;;13.50;10.75;;;;;;;;4919453;28;45329;-72
2021/09/20 09:44:47;;;;;;;;;15.00;13.00;;;;;;;;4919050;28;45608;-73
2021/09/20 09:47:28;;;;;;;;;10.50;8.00;;;;;;;;4919673;28;45673;-71
2021/09/20 09:50:12;;;;;;;;;11.00;8.00;;;;;;;;4928869;28;45537;-73
2021/09/20 09:52:37;;;;;;;;;16.25;12.50;;;;;;;;4987785;28;45523;-73
2021/09/20 09:55:03;;;;;;;;;7.75;7.75;;;;;;;;4989591;28;45354;-73
2021/09/20 09:57:28;;;;;;;;;12.00;10.25;;;;;;;;4991618;28;46165;-73
2021/09/20 10:00:01;;;;;;;;;11.75;9.00;;;;;;;;4989460;28;45246;-72
2021/09/20 10:02:30;;;;;;;;;9.50;9.00;;;;;;;;4989165;28;45410;-73
2021/09/20 10:04:57;;;;;;;;;13.00;11.25;;;;;;;;4988674;28;45420;-72
2021/09/20 10:07:23;;;;;;;;;33.00;28.00;;;;;;;;4988783;28;46101;-72
2021/09/20 10:09:48;;;;;;;;;11.50;10.50;;;;;;;;4992329;28;45324;-72
2021/09/20 10:12:15;;;;;;;;;11.00;10.75;;;;;;;;4996018;28;45404;-72
2021/09/20 10:14:41;;;;;;;;;12.50;10.50;;;;;;;;4994829;28;45275;-73
2021/09/20 10:17:08;;;;;;;;;17.50;13.75;;;;;;;;4993794;28;47264;-72
2021/09/20 10:19:34;;;;;;;;;18.25;16.25;;;;;;;;4994678;28;45436;-72
2021/09/20 10:21:59;;;;;;;;;16.25;14.50;;;;;;;;4995249;28;45362;-73
2021/09/20 10:24:24;;;;;;;;;16.50;13.75;;;;;;;;4997026;28;45361;-74
2021/09/20 10:26:49;;;;;;;;;18.50;18.50;;;;;;;;4995955;28;47149;-72
2021/09/20 10:29:16;;;;;;;;;18.50;17.25;;;;;;;;4993725;28;45455;-72
2021/09/20 10:31:42;;;;;;;;;17.00;14.75;;;;;;;;4995301;28;45442;-73
2021/09/20 10:34:20;;;;;;;;;14.00;13.50;;;;;;;;4995175;28;45223;-73
2021/09/20 10:36:46;;;;;;;;;19.50;15.50;;;;;;;;4992772;28;47243;-72
2021/09/20 10:39:11;;;;;;;;;14.00;11.75;;;;;;;;4994793;28;45358;-73
2021/09/20 10:41:37;;;;;;;;;15.75;15.75;;;;;;;;4995101;28;47612;-72
2021/09/20 10:44:07;;;;;;;;;15.25;13.50;;;;;;;;4993285;28;45445;-73
2021/09/20 10:46:33;;;;;;;;;19.25;16.75;;;;;;;;4995167;28;46222;-71
2021/09/20 10:49:03;;;;;;;;;15.50;14.75;;;;;;;;4995638;28;45689;-72
2021/09/20 10:51:35;;;;;;;;;18.50;16.50;;;;;;;;4994710;28;45356;-73
2021/09/20 10:54:10;;;;;;;;;16.75;13.75;;;;;;;;4994638;28;45543;-71
2021/09/20 10:56:35;;;;;;;;;15.50;15.25;;;;;;;;4992728;28;45617;-73
2021/09/20 10:59:01;;;;;;;;;16.00;15.25;;;;;;;;4994685;28;45341;-73
2021/09/20 11:01:28;;;;;;;;;17.75;14.25;;;;;;;;4994857;28;45453;-73
2021/09/20 11:03:55;;;;;;;;;19.75;11.50;;;;;;;;4996198;28;45497;-73
2021/09/20 11:06:24;;;;;;;;;11.75;11.75;;;;;;;;4995148;28;46914;-73
2021/09/20 11:08:59;;;;;;;;;17.00;14.00;;;;;;;;4992855;28;45424;-71
2021/09/20 11:11:36;;;;;;;;;14.75;11.00;;;;;;;;4994001;28;45338;-71
2021/09/20 11:14:03;;;;;;;;;11.50;11.50;;;;;;;;4993867;28;45296;-71
2021/09/20 11:16:55;;;;;;;;;13.00;10.25;;;;;;;;4993807;28;46280;-71
2021/09/20 11:19:31;;;;;;;;;15.00;15.00;;;;;;;;4974177;28;45526;-72
2021/09/20 11:22:06;;;;;;;;;14.50;13.25;;;;;;;;4991827;28;45385;-73
2021/09/20 11:24:36;;;;;;;;;11.75;10.25;;;;;;;;4991115;28;45441;-73
2021/09/20 11:27:02;;;;;;;;;14.00;14.00;;;;;;;;4990354;28;46478;-72
2021/09/20 11:29:28;;;;;;;;;13.00;13.00;;;;;;;;4990473;28;45343;-73
2021/09/20 11:31:54;;;;;;;;;14.00;11.00;;;;;;;;4990766;28;45356;-72
2021/09/20 11:34:32;;;;;;;;;14.50;13.25;;;;;;;;4990286;28;45358;-71
2021/09/20 11:37:16;;;;;;;;;12.75;11.00;;;;;;;;4991211;28;45512;-73
2021/09/20 11:39:47;;;;;;;;;14.25;12.00;;;;;;;;4992068;28;45496;-71
2021/09/20 11:42:14;;;;;;;;;14.00;10.50;;;;;;;;4988973;28;45605;-72
2021/09/20 11:44:47;;;;;;;;;15.50;12.75;;;;;;;;4988687;28;45523;-72
2021/09/20 11:47:13;;;;;;;;;15.25;15.25;;;;;;;;4989561;28;46267;-73
2021/09/20 11:49:38;;;;;;;;;15.50;13.00;;;;;;;;4989386;28;45591;-72
2021/09/20 11:52:03;;;;;;;;;15.75;15.25;;;;;;;;4990246;28;47455;-73
2021/09/20 11:54:34;;;;;;;;;11.75;11.50;;;;;;;;4992353;27;45580;-73
2021/09/20 11:57:28;;;;;;;;;12.25;10.75;;;;;;;;4990588;28;46056;-71
2021/09/20 11:59:58;;;;;;;;;14.75;14.00;;;;;;;;4976531;27;45536;-72
2021/09/20 12:02:42;;;;;;;;;14.50;13.50;;;;;;;;4971251;28;45371;-73
2021/09/20 12:05:08;;;;;;;;;20.00;17.00;;;;;;;;4990144;28;45610;-72
2021/09/20 12:07:35;;;;;;;;;16.00;12.00;;;;;;;;4990241;28;45358;-72
2021/09/20 12:10:01;;;;;;;;;22.00;15.75;;;;;;;;4990469;28;45581;-71
2021/09/20 12:12:27;;;;;;;;;14.00;12.75;;;;;;;;4992388;28;45514;-71
2021/09/20 12:15:00;;;;;;;;;16.00;14.00;;;;;;;;4972736;28;45511;-73
2021/09/20 12:17:43;;;;;;;;;13.75;13.75;;;;;;;;4990122;28;45378;-71
2021/09/20 12:20:09;;;;;;;;;8.75;8.75;;;;;;;;4972849;28;45899;-72
2021/09/20 12:22:38;;;;;;;;;12.00;8.50;;;;;;;;4971212;28;45495;-73
2021/09/20 12:25:27;;;;;;;;;22.25;14.00;;;;;;;;4991402;28;45319;-71
2021/09/20 12:27:53;;;;;;;;;7.50;6.75;;;;;;;;4947316;28;46568;-73
2021/09/20 12:30:19;;;;;;;;;9.75;9.25;;;;;;;;4954609;28;45377;-71
2021/09/20 12:32:45;;;;;;;;;8.50;8.50;;;;;;;;4951525;28;45229;-72
2021/09/20 12:35:10;;;;;;;;;9.50;7.00;;;;;;;;4950225;28;45330;-73
2021/09/20 12:37:36;;;;;;;;;9.00;9.00;;;;;;;;4950944;28;47099;-72
2021/09/20 12:40:22;;;;;;;;;9.50;8.50;;;;;;;;4950483;28;45824;-73
2021/09/20 12:43:12;;;;;;;;;10.00;8.00;;;;;;;;4950838;28;45430;-72
2021/09/20 12:45:39;;;;;;;;;7.00;7.00;;;;;;;;4950094;28;45619;-69
2021/09/20 12:48:04;;;;;;;;;9.25;8.25;;;;;;;;4949441;28;46197;-72
2021/09/20 12:50:36;;;;;;;;;7.50;7.25;;;;;;;;4949558;28;45334;-71
2021/09/20 12:53:01;;;;;;;;;6.00;4.75;;;;;;;;4949899;28;45443;-71
2021/09/20 12:55:32;;;;;;;;;7.25;7.00;;;;;;;;4949894;28;45299;-72
2021/09/20 12:57:57;;;;;;;;;10.50;9.50;;;;;;;;4950245;28;47171;-71
2021/09/20 13:00:29;;;;;;;;;5.50;3.75;;;;;;;;4949807;28;45573;-72
2021/09/20 13:03:12;;;;;;;;;8.33;7.33;;;;;;;;4949187;28;45623;-72
2021/09/20 13:05:42;;;;;;;;;5.00;5.00;;;;;;;;4978965;28;45338;-72
2021/09/20 13:08:07;;;;;;;;;7.67;5.00;;;;;;;;4989649;28;45307;-72
2021/09/20 13:10:33;;;;;;;;;5.00;5.00;;;;;;;;4989894;28;45315;-72
2021/09/20 13:12:58;;;;;;;;;6.00;6.00;;;;;;;;4990779;28;45303;-72
2021/09/20 13:15:25;;;;;;;;;12.33;9.00;;;;;;;;4990732;28;45385;-71
2021/09/20 13:17:55;;;;;;;;;8.00;7.00;;;;;;;;4988378;28;47384;-72
2021/09/20 13:20:20;;;;;;;;;9.00;8.00;;;;;;;;4989178;28;45621;-72
2021/09/20 13:23:09;;;;;;;;;5.00;5.00;;;;;;;;4989426;28;45356;-72
2021/09/20 13:25:35;;;;;;;;;3.00;3.00;;;;;;;;4963279;28;45536;-72
2021/09/20 13:28:10;;;;;;;;;7.33;4.33;;;;;;;;4989347;28;45434;-72
2021/09/20 13:30:40;;;;;;;;;6.00;4.00;;;;;;;;4989747;28;45323;-72
2021/09/20 13:33:05;;;;;;;;;4.67;4.67;;;;;;;;4989456;28;45525;-73
2021/09/20 13:35:33;;;;;;;;;4.00;4.00;;;;;;;;4989606;28;45494;-73
2021/09/20 13:37:59;;;;;;;;;5.00;5.00;;;;;;;;4989146;28;46512;-72
2021/09/20 13:40:24;;;;;;;;;7.00;4.33;;;;;;;;4987970;28;45352;-72
2021/09/20 13:42:50;;;;;;;;;4.67;4.00;;;;;;;;4991023;28;45527;-72
2021/09/20 13:45:15;;;;;;;;;5.33;5.33;;;;;;;;4986447;28;45406;-71
2021/09/20 13:47:41;;;;;;;;;4.67;4.67;;;;;;;;4988735;28;46043;-73
2021/09/20 13:50:07;;;;;;;;;6.67;6.67;;;;;;;;4989113;28;45356;-72
2021/09/20 13:52:32;;;;;;;;;9.25;9.25;;;;;;;;4971171;28;45305;-73
2021/09/20 13:54:57;;;;;;;;;7.00;6.00;;;;;;;;4989972;28;45362;-72
2021/09/20 13:57:22;;;;;;;;;7.00;7.00;;;;;;;;4990229;28;45212;-73
2021/09/20 13:59:48;;;;;;;;;12.75;11.25;;;;;;;;4988773;28;45525;-74
2021/09/20 14:02:13;;;;;;;;;8.00;8.00;;;;;;;;4988336;28;45406;-73
2021/09/20 14:04:38;;;;;;;;;10.00;8.75;;;;;;;;4988899;28;45495;-73
2021/09/20 14:07:03;;;;;;;;;10.00;8.00;;;;;;;;4988565;28;45447;-73
2021/09/20 14:09:29;;;;;;;;;11.25;9.75;;;;;;;;4991197;28;45338;-73
2021/09/20 14:11:54;;;;;;;;;9.25;7.75;;;;;;;;4989071;28;45902;-72
2021/09/20 14:14:19;;;;;;;;;8.25;7.00;;;;;;;;4987664;28;45728;-73
2021/09/20 14:16:47;;;;;;;;;5.00;5.00;;;;;;;;4988396;28;46065;-73
2021/09/20 14:19:13;;;;;;;;;7.50;7.50;;;;;;;;4987706;28;45471;-72
2021/09/20 14:21:38;;;;;;;;;6.25;6.25;;;;;;;;4990825;28;45402;-72
2021/09/20 14:24:03;;;;;;;;;7.00;7.00;;;;;;;;4987368;28;45463;-73
2021/09/20 14:26:29;;;;;;;;;7.50;6.00;;;;;;;;4987815;28;45450;-73
2021/09/20 14:28:54;;;;;;;;;5.50;5.50;;;;;;;;4987743;28;45412;-72
2021/09/20 14:31:19;;;;;;;;;5.00;5.00;;;;;;;;4988711;28;45357;-72